Time;durP1;ratioP1;P1;durP2;ratioP2;P2;SDS_P1;SDS_P2;PMS_P1;PMS_P2;Temp;Humidity;BMP_temperature;BMP_pressure;BME280_temperature;BME280_humidity;BME280_pressure;Samples;Min_cycle;Max_cycle;Signal;HPM_P1;HPM_P2
2022/01/15 00:01:49;;;;;;;14.65;9.38;;;;;;;;;;5073838;28;20048;-75
2022/01/15 00:04:17;;;;;;;10.02;8.95;;;;;;;;;;5073857;28;20703;-75
2022/01/15 00:06:48;;;;;;;13.02;9.80;;;;;;;;;;5073938;28;20122;-76
2022/01/15 00:09:15;;;;;;;18.40;11.93;;;;;;;;;;5074242;28;20059;-76
2022/01/15 00:11:44;;;;;;;10.70;8.38;;;;;;;;;;5056288;28;20151;-76
2022/01/15 00:14:14;;;;;;;13.52;7.95;;;;;;;;;;5056397;28;20144;-76
2022/01/15 00:16:46;;;;;;;9.60;8.48;;;;;;;;;;5074098;28;20156;-76
2022/01/15 00:19:16;;;;;;;10.45;8.95;;;;;;;;;;5056770;28;20049;-76
2022/01/15 00:21:43;;;;;;;9.02;7.47;;;;;;;;;;5089226;28;20048;-75
2022/01/15 00:24:10;;;;;;;11.20;8.15;;;;;;;;;;5073608;28;20064;-75
2022/01/15 00:26:37;;;;;;;8.23;7.38;;;;;;;;;;5056263;28;20071;-75
2022/01/15 00:29:04;;;;;;;7.00;6.30;;;;;;;;;;5056196;28;20051;-76
2022/01/15 00:31:32;;;;;;;8.07;6.85;;;;;;;;;;5055158;28;20127;-75
2022/01/15 00:33:59;;;;;;;10.20;9.15;;;;;;;;;;5048906;28;20060;-76
2022/01/15 00:36:26;;;;;;;9.50;7.88;;;;;;;;;;5035626;28;20045;-76
2022/01/15 00:38:52;;;;;;;10.80;9.55;;;;;;;;;;5055689;28;20519;-76
2022/01/15 00:41:19;;;;;;;10.27;8.35;;;;;;;;;;5055657;28;20516;-75
2022/01/15 00:43:46;;;;;;;8.52;7.72;;;;;;;;;;5055814;28;20068;-75
2022/01/15 00:46:13;;;;;;;9.82;8.20;;;;;;;;;;5055690;28;20124;-75
2022/01/15 00:48:40;;;;;;;9.25;6.93;;;;;;;;;;5055430;28;20048;-75
2022/01/15 00:51:08;;;;;;;10.07;7.55;;;;;;;;;;5055377;28;20134;-75
2022/01/15 00:53:35;;;;;;;5.95;5.35;;;;;;;;;;5072025;28;20055;-75
2022/01/15 00:56:02;;;;;;;6.47;5.57;;;;;;;;;;5073590;28;20045;-75
2022/01/15 00:58:28;;;;;;;5.95;5.28;;;;;;;;;;5072889;28;20048;-75
2022/01/15 01:00:55;;;;;;;7.65;5.63;;;;;;;;;;5053178;28;20048;-74
2022/01/15 01:03:22;;;;;;;9.27;7.03;;;;;;;;;;5035240;28;20536;-74
2022/01/15 01:05:49;;;;;;;6.05;5.03;;;;;;;;;;5035478;28;20044;-74
2022/01/15 01:08:16;;;;;;;7.70;5.55;;;;;;;;;;5035596;28;20055;-74
2022/01/15 01:10:58;;;;;;;6.15;5.55;;;;;;;;;;5052657;28;20417;-74
2022/01/15 01:24:24;;;;;;;8.68;6.13;;;;;;;;;;5072720;28;20062;-75
2022/01/15 01:30:08;;;;;;;5.57;4.78;;;;;;;;;;5072496;28;20640;-75
2022/01/15 01:35:04;;;;;;;5.30;4.80;;;;;;;;;;5056522;28;20044;-75
2022/01/15 01:37:37;;;;;;;4.72;4.22;;;;;;;;;;5055766;28;20056;-75
2022/01/15 01:40:27;;;;;;;5.78;4.88;;;;;;;;;;5055462;28;20063;-74
2022/01/15 01:43:04;;;;;;;5.10;4.60;;;;;;;;;;5055358;28;20054;-74
2022/01/15 01:45:31;;;;;;;5.07;4.45;;;;;;;;;;5068221;28;20072;-74
2022/01/15 01:47:58;;;;;;;5.28;4.88;;;;;;;;;;5037944;28;20497;-74
2022/01/15 01:50:27;;;;;;;5.88;5.38;;;;;;;;;;5071984;28;20052;-74
2022/01/15 01:52:57;;;;;;;6.38;4.78;;;;;;;;;;5087746;28;20048;-75
2022/01/15 01:55:26;;;;;;;5.72;5.13;;;;;;;;;;5087230;28;20143;-75
2022/01/15 01:57:55;;;;;;;5.60;5.10;;;;;;;;;;5087274;28;20547;-75
2022/01/15 02:00:24;;;;;;;5.68;4.97;;;;;;;;;;5086789;28;20090;-75
2022/01/15 02:02:52;;;;;;;6.20;5.03;;;;;;;;;;5087387;28;20535;-75
2022/01/15 02:05:20;;;;;;;7.65;5.18;;;;;;;;;;5072161;28;20139;-75
2022/01/15 02:07:47;;;;;;;6.78;5.63;;;;;;;;;;5071391;28;20132;-75
2022/01/15 02:10:16;;;;;;;7.55;6.75;;;;;;;;;;5087466;28;20043;-75
2022/01/15 02:12:45;;;;;;;8.68;5.97;;;;;;;;;;5071502;28;20558;-74
2022/01/15 02:15:15;;;;;;;7.00;6.30;;;;;;;;;;5054216;28;20118;-75
2022/01/15 02:17:44;;;;;;;6.03;5.50;;;;;;;;;;5037428;28;20408;-75
2022/01/15 02:20:34;;;;;;;7.90;6.82;;;;;;;;;;5068787;28;20064;-75
2022/01/15 02:26:00;;;;;;;6.53;5.85;;;;;;;;;;5036925;28;20056;-75
2022/01/15 02:28:30;;;;;;;5.90;5.32;;;;;;;;;;5051550;28;20401;-75
2022/01/15 02:31:03;;;;;;;5.75;5.25;;;;;;;;;;5051676;28;20060;-76
2022/01/15 02:33:31;;;;;;;5.25;4.75;;;;;;;;;;5033937;28;20132;-76
2022/01/15 02:35:58;;;;;;;5.20;4.70;;;;;;;;;;5017464;28;20053;-76
2022/01/15 02:38:26;;;;;;;6.68;5.55;;;;;;;;;;5051650;28;20128;-76
2022/01/15 02:40:53;;;;;;;5.78;5.20;;;;;;;;;;5050994;28;20063;-75
2022/01/15 02:43:28;;;;;;;7.38;5.65;;;;;;;;;;5033700;28;20436;-76
2022/01/15 02:45:56;;;;;;;11.40;5.45;;;;;;;;;;5050965;28;20079;-76
2022/01/15 02:48:26;;;;;;;5.82;5.22;;;;;;;;;;5051228;28;20068;-76
2022/01/15 02:50:54;;;;;;;5.88;5.10;;;;;;;;;;5033784;28;20041;-77
2022/01/15 02:53:22;;;;;;;6.63;5.18;;;;;;;;;;5051400;28;20056;-77
2022/01/15 02:55:51;;;;;;;5.00;4.50;;;;;;;;;;5051397;28;20455;-76
2022/01/15 02:58:19;;;;;;;5.15;4.30;;;;;;;;;;5017506;28;20075;-75
2022/01/15 03:00:47;;;;;;;8.30;4.82;;;;;;;;;;5051298;28;20052;-75
2022/01/15 03:03:14;;;;;;;5.35;4.82;;;;;;;;;;5051261;28;20095;-75
2022/01/15 03:05:41;;;;;;;4.97;4.40;;;;;;;;;;5051455;28;20044;-75
2022/01/15 03:08:08;;;;;;;5.35;4.60;;;;;;;;;;5033408;28;20053;-75
2022/01/15 03:10:35;;;;;;;5.97;5.38;;;;;;;;;;5051049;28;20390;-75
2022/01/15 03:13:09;;;;;;;7.32;5.18;;;;;;;;;;5017382;28;20056;-75
2022/01/15 03:15:36;;;;;;;6.10;5.38;;;;;;;;;;5050738;28;20095;-75
2022/01/15 03:18:03;;;;;;;4.97;4.50;;;;;;;;;;5054812;28;20078;-75
2022/01/15 03:20:31;;;;;;;6.22;4.75;;;;;;;;;;5054437;28;20059;-75
2022/01/15 03:22:58;;;;;;;6.72;4.40;;;;;;;;;;5037364;28;20055;-75
2022/01/15 03:25:25;;;;;;;4.72;4.32;;;;;;;;;;5037238;28;20464;-75
2022/01/15 03:27:54;;;;;;;11.90;5.03;;;;;;;;;;5061735;28;20110;-75
2022/01/15 03:30:21;;;;;;;5.40;4.90;;;;;;;;;;5058622;28;20049;-75
2022/01/15 03:32:49;;;;;;;5.43;4.80;;;;;;;;;;5036829;28;20545;-75
2022/01/15 03:35:17;;;;;;;5.07;4.15;;;;;;;;;;5060518;28;20052;-75
2022/01/15 03:37:44;;;;;;;5.50;4.38;;;;;;;;;;5038782;28;20048;-76
2022/01/15 03:40:14;;;;;;;4.97;4.10;;;;;;;;;;5054479;28;20073;-76
2022/01/15 03:42:42;;;;;;;7.25;4.05;;;;;;;;;;5020611;28;20057;-77
2022/01/15 03:45:10;;;;;;;4.38;3.97;;;;;;;;;;5054441;28;20071;-76
2022/01/15 03:47:37;;;;;;;5.55;3.60;;;;;;;;;;5054716;28;20053;-76
2022/01/15 03:50:04;;;;;;;4.05;3.75;;;;;;;;;;5036578;28;20045;-76
2022/01/15 03:52:31;;;;;;;4.55;4.13;;;;;;;;;;5060867;28;20465;-76
2022/01/15 03:54:58;;;;;;;4.95;4.40;;;;;;;;;;5054164;28;20044;-76
2022/01/15 03:57:25;;;;;;;4.50;4.18;;;;;;;;;;5036664;28;20067;-76
2022/01/15 03:59:52;;;;;;;5.28;4.03;;;;;;;;;;5036571;28;20060;-76
2022/01/15 04:02:19;;;;;;;5.05;4.00;;;;;;;;;;5020656;28;20041;-76
2022/01/15 04:04:46;;;;;;;5.22;4.78;;;;;;;;;;5036487;28;20053;-76
2022/01/15 04:07:14;;;;;;;5.85;4.53;;;;;;;;;;5036525;28;20061;-76
2022/01/15 04:09:40;;;;;;;5.15;4.65;;;;;;;;;;5036659;28;20061;-76
2022/01/15 04:12:08;;;;;;;5.60;4.10;;;;;;;;;;5019686;28;20053;-76
2022/01/15 04:14:35;;;;;;;6.22;5.05;;;;;;;;;;5036604;28;20076;-77
2022/01/15 04:17:03;;;;;;;14.52;5.35;;;;;;;;;;5036493;28;20095;-76
2022/01/15 04:19:30;;;;;;;6.10;5.07;;;;;;;;;;5054225;28;20049;-77
2022/01/15 04:21:57;;;;;;;4.38;4.07;;;;;;;;;;5036414;28;20041;-76
2022/01/15 04:24:24;;;;;;;5.93;3.97;;;;;;;;;;5036440;28;20099;-75
2022/01/15 04:26:50;;;;;;;11.55;4.88;;;;;;;;;;5053866;28;20071;-76
2022/01/15 04:29:17;;;;;;;3.83;3.38;;;;;;;;;;5018642;28;20045;-76
2022/01/15 04:31:48;;;;;;;5.82;5.07;;;;;;;;;;5036141;28;20048;-75
2022/01/15 04:34:27;;;;;;;3.83;3.53;;;;;;;;;;5028812;28;20055;-76
2022/01/15 04:37:11;;;;;;;7.57;4.45;;;;;;;;;;5038470;28;20763;-76
2022/01/15 04:39:39;;;;;;;6.30;4.05;;;;;;;;;;5049474;28;20520;-77
2022/01/15 04:42:06;;;;;;;5.47;3.67;;;;;;;;;;5046390;28;20052;-76
2022/01/15 04:44:33;;;;;;;4.47;4.05;;;;;;;;;;5033352;28;20045;-76
2022/01/15 04:47:03;;;;;;;4.18;3.78;;;;;;;;;;5049354;28;20135;-76
2022/01/15 04:49:31;;;;;;;4.15;3.78;;;;;;;;;;5054117;28;20145;-75
2022/01/15 04:51:59;;;;;;;4.88;4.40;;;;;;;;;;5047443;28;20140;-75
2022/01/15 04:54:27;;;;;;;5.95;5.45;;;;;;;;;;5055470;28;20051;-75
2022/01/15 04:56:54;;;;;;;4.15;3.85;;;;;;;;;;5088260;28;20036;-75
2022/01/15 04:59:23;;;;;;;3.97;3.55;;;;;;;;;;5055260;28;20130;-75
2022/01/15 05:01:50;;;;;;;4.15;3.78;;;;;;;;;;5036298;28;20052;-75
2022/01/15 05:04:18;;;;;;;5.03;4.63;;;;;;;;;;5088271;28;20051;-75
2022/01/15 05:06:45;;;;;;;6.32;4.00;;;;;;;;;;5055385;28;20068;-76
2022/01/15 05:09:12;;;;;;;4.30;3.83;;;;;;;;;;5054697;28;20056;-76
2022/01/15 05:11:58;;;;;;;4.43;4.03;;;;;;;;;;5054599;28;20048;-76
2022/01/15 05:14:25;;;;;;;4.75;4.07;;;;;;;;;;5057514;28;20076;-75
2022/01/15 05:16:52;;;;;;;5.93;5.00;;;;;;;;;;5054814;28;20055;-75
2022/01/15 05:19:19;;;;;;;6.15;4.82;;;;;;;;;;5072066;28;20139;-75
2022/01/15 05:21:46;;;;;;;5.15;4.75;;;;;;;;;;5072727;28;20127;-75
2022/01/15 05:24:13;;;;;;;5.05;4.65;;;;;;;;;;5054884;28;20072;-76
2022/01/15 05:26:40;;;;;;;5.65;5.15;;;;;;;;;;5054354;28;20052;-75
2022/01/15 05:29:07;;;;;;;8.55;4.95;;;;;;;;;;5054841;28;20048;-75
2022/01/15 05:31:34;;;;;;;6.25;4.95;;;;;;;;;;5054263;28;20611;-75
2022/01/15 05:34:01;;;;;;;7.40;5.55;;;;;;;;;;5035488;28;20072;-75
2022/01/15 05:36:28;;;;;;;6.18;5.57;;;;;;;;;;5052174;28;20049;-75
2022/01/15 05:38:55;;;;;;;5.03;4.53;;;;;;;;;;5052275;28;20136;-75
2022/01/15 05:41:22;;;;;;;5.53;5.03;;;;;;;;;;5033835;28;20045;-74
2022/01/15 05:43:49;;;;;;;6.25;4.85;;;;;;;;;;5033995;28;20040;-75
2022/01/15 05:46:16;;;;;;;4.88;4.38;;;;;;;;;;5034873;28;20045;-75
2022/01/15 05:48:43;;;;;;;5.75;5.22;;;;;;;;;;5034467;28;20053;-74
2022/01/15 05:51:09;;;;;;;5.68;4.95;;;;;;;;;;5033990;28;20512;-75
2022/01/15 05:53:36;;;;;;;5.32;4.40;;;;;;;;;;5033979;28;20076;-74
2022/01/15 05:56:04;;;;;;;3.95;3.65;;;;;;;;;;5034821;28;20139;-73
2022/01/15 05:58:31;;;;;;;6.05;5.22;;;;;;;;;;5018443;28;20052;-72
2022/01/15 06:00:57;;;;;;;5.57;4.20;;;;;;;;;;5018012;28;20051;-74
2022/01/15 06:03:25;;;;;;;5.05;4.45;;;;;;;;;;5051971;28;20059;-74
2022/01/15 06:05:52;;;;;;;5.70;5.15;;;;;;;;;;5033461;28;20053;-73
2022/01/15 06:08:19;;;;;;;5.13;4.30;;;;;;;;;;5034167;28;20041;-73
2022/01/15 06:10:46;;;;;;;6.25;4.97;;;;;;;;;;5051119;28;20052;-72
2022/01/15 06:13:13;;;;;;;5.50;5.05;;;;;;;;;;5033892;28;20060;-75
2022/01/15 06:15:40;;;;;;;5.88;5.35;;;;;;;;;;5031250;28;20048;-73
2022/01/15 06:18:07;;;;;;;5.90;5.30;;;;;;;;;;5030262;28;20497;-71
2022/01/15 06:20:34;;;;;;;7.68;5.40;;;;;;;;;;5046400;28;20106;-71
2022/01/15 06:23:01;;;;;;;9.50;5.18;;;;;;;;;;5039960;28;20037;-69
2022/01/15 06:25:28;;;;;;;5.65;5.15;;;;;;;;;;5024847;28;20095;-69
2022/01/15 06:27:55;;;;;;;6.82;4.93;;;;;;;;;;5020262;28;20449;-71
2022/01/15 06:30:23;;;;;;;5.63;5.22;;;;;;;;;;5021240;28;20036;-70
2022/01/15 06:32:50;;;;;;;5.65;5.15;;;;;;;;;;5022923;28;20045;-72
2022/01/15 06:35:17;;;;;;;7.07;4.80;;;;;;;;;;5011169;28;20095;-71
2022/01/15 06:37:47;;;;;;;7.18;5.78;;;;;;;;;;5026297;28;20119;-71
2022/01/15 06:40:16;;;;;;;7.72;5.55;;;;;;;;;;5029361;28;20045;-69
2022/01/15 06:42:43;;;;;;;7.20;4.95;;;;;;;;;;5030849;28;20106;-71
2022/01/15 06:45:11;;;;;;;5.97;5.38;;;;;;;;;;5014048;28;20049;-71
2022/01/15 06:47:38;;;;;;;9.82;5.70;;;;;;;;;;5013353;28;20068;-70
2022/01/15 06:50:06;;;;;;;8.40;7.70;;;;;;;;;;5029212;28;20094;-71
2022/01/15 06:52:38;;;;;;;8.25;6.60;;;;;;;;;;5013519;28;20047;-71
2022/01/15 06:55:07;;;;;;;8.43;7.63;;;;;;;;;;5012822;28;20052;-70
2022/01/15 06:57:34;;;;;;;8.38;6.70;;;;;;;;;;5030484;28;20445;-70
2022/01/15 07:00:06;;;;;;;8.10;7.45;;;;;;;;;;5030160;28;20049;-71
2022/01/15 07:02:34;;;;;;;7.38;6.75;;;;;;;;;;5014183;28;20061;-69
2022/01/15 07:05:01;;;;;;;7.88;6.95;;;;;;;;;;5028727;28;20041;-70
2022/01/15 07:07:28;;;;;;;12.95;6.47;;;;;;;;;;5048253;28;20478;-70
2022/01/15 07:09:55;;;;;;;7.30;4.78;;;;;;;;;;5030977;28;20431;-71
2022/01/15 07:12:22;;;;;;;7.25;5.43;;;;;;;;;;5025998;28;20053;-71
2022/01/15 07:14:49;;;;;;;5.15;4.68;;;;;;;;;;5028998;28;20040;-73
2022/01/15 07:17:16;;;;;;;5.05;4.20;;;;;;;;;;5027109;28;20076;-72
2022/01/15 07:19:43;;;;;;;5.60;4.95;;;;;;;;;;5045450;28;20072;-70
2022/01/15 07:22:11;;;;;;;8.13;5.10;;;;;;;;;;5008172;28;20065;-72
2022/01/15 07:24:38;;;;;;;17.17;8.60;;;;;;;;;;5021727;28;20045;-71
2022/01/15 07:27:06;;;;;;;11.73;8.60;;;;;;;;;;5028801;28;20094;-71
2022/01/15 07:29:36;;;;;;;10.48;6.32;;;;;;;;;;5014415;28;20075;-71
2022/01/15 07:32:04;;;;;;;7.15;6.15;;;;;;;;;;5045402;28;20095;-71
2022/01/15 07:34:32;;;;;;;7.68;5.00;;;;;;;;;;5027792;28;20073;-72
2022/01/15 07:37:00;;;;;;;6.88;4.57;;;;;;;;;;5045422;28;20127;-70
2022/01/15 07:39:27;;;;;;;6.65;4.43;;;;;;;;;;5041184;28;20558;-71
2022/01/15 07:41:56;;;;;;;5.07;4.68;;;;;;;;;;5047035;28;20127;-70
2022/01/15 07:44:23;;;;;;;5.57;4.70;;;;;;;;;;5034115;28;20052;-71
2022/01/15 07:46:50;;;;;;;7.00;5.07;;;;;;;;;;5057427;28;20050;-72
2022/01/15 07:49:18;;;;;;;4.30;3.90;;;;;;;;;;5074412;28;20048;-71
2022/01/15 07:51:45;;;;;;;3.97;3.65;;;;;;;;;;5066568;28;20098;-70
2022/01/15 07:54:12;;;;;;;5.35;4.20;;;;;;;;;;5039691;28;20053;-72
2022/01/15 07:56:39;;;;;;;4.85;4.20;;;;;;;;;;5059310;28;20152;-72
2022/01/15 07:59:06;;;;;;;6.05;5.43;;;;;;;;;;5047335;28;20461;-69
2022/01/15 08:01:33;;;;;;;6.22;5.63;;;;;;;;;;5072202;28;20056;-71
2022/01/15 08:04:02;;;;;;;6.72;6.03;;;;;;;;;;5044709;28;20064;-72
2022/01/15 08:06:29;;;;;;;9.40;8.52;;;;;;;;;;5047056;28;20154;-71
2022/01/15 08:08:57;;;;;;;17.80;12.02;;;;;;;;;;5034078;28;20039;-73
2022/01/15 08:11:24;;;;;;;19.45;11.45;;;;;;;;;;5068018;28;20091;-72
2022/01/15 08:13:51;;;;;;;15.98;11.05;;;;;;;;;;5069007;28;20040;-72
2022/01/15 08:16:18;;;;;;;13.50;11.38;;;;;;;;;;5049774;28;20075;-73
2022/01/15 08:18:45;;;;;;;11.00;9.27;;;;;;;;;;5068122;28;20053;-70
2022/01/15 08:21:12;;;;;;;9.80;7.25;;;;;;;;;;5085056;28;20501;-73
2022/01/15 08:23:39;;;;;;;10.60;7.25;;;;;;;;;;5036085;28;20052;-72
2022/01/15 08:26:07;;;;;;;16.58;8.93;;;;;;;;;;5032813;28;20074;-70
2022/01/15 08:28:36;;;;;;;13.02;8.75;;;;;;;;;;5063209;28;20049;-70
2022/01/15 08:31:07;;;;;;;10.35;8.80;;;;;;;;;;5048487;28;20402;-77
2022/01/15 08:33:35;;;;;;;11.20;7.55;;;;;;;;;;5047584;28;20057;-72
2022/01/15 08:36:02;;;;;;;6.65;6.05;;;;;;;;;;5041866;28;20044;-71
2022/01/15 08:38:29;;;;;;;8.02;6.80;;;;;;;;;;5051933;28;20139;-73
2022/01/15 08:41:17;;;;;;;8.15;7.35;;;;;;;;;;5044085;28;20133;-74
2022/01/15 08:43:44;;;;;;;8.38;7.55;;;;;;;;;;5057552;28;20124;-75
2022/01/15 08:46:11;;;;;;;10.93;8.80;;;;;;;;;;5056338;28;20056;-74
2022/01/15 08:48:39;;;;;;;18.33;10.38;;;;;;;;;;5047829;28;20048;-73
2022/01/15 08:51:06;;;;;;;16.92;10.35;;;;;;;;;;5076125;28;20044;-73
2022/01/15 08:53:33;;;;;;;16.33;10.55;;;;;;;;;;5080201;28;20076;-73
2022/01/15 08:56:01;;;;;;;17.65;9.52;;;;;;;;;;5059393;28;20048;-72
2022/01/15 08:58:28;;;;;;;11.60;9.93;;;;;;;;;;5068468;28;20060;-72
2022/01/15 09:00:55;;;;;;;15.77;11.05;;;;;;;;;;5042929;28;20048;-74
2022/01/15 09:03:23;;;;;;;15.55;10.38;;;;;;;;;;5032556;28;20424;-72
2022/01/15 09:05:51;;;;;;;14.70;10.55;;;;;;;;;;5061482;28;20045;-73
2022/01/15 09:08:24;;;;;;;13.27;10.90;;;;;;;;;;5048008;28;20053;-72
2022/01/15 09:10:53;;;;;;;12.82;9.95;;;;;;;;;;5054060;28;20527;-72
2022/01/15 09:13:20;;;;;;;9.48;8.38;;;;;;;;;;5053241;28;20040;-72
2022/01/15 09:15:49;;;;;;;8.90;7.18;;;;;;;;;;5045947;28;20048;-72
2022/01/15 09:18:18;;;;;;;9.27;8.27;;;;;;;;;;5045524;28;20052;-72
2022/01/15 09:20:46;;;;;;;14.35;11.45;;;;;;;;;;5079359;28;20060;-71
2022/01/15 09:23:13;;;;;;;13.15;10.77;;;;;;;;;;5078971;28;20049;-71
2022/01/15 09:25:40;;;;;;;18.08;10.43;;;;;;;;;;5062011;28;20107;-73
2022/01/15 09:30:55;;;;;;;11.30;6.70;;;;;;;;;;5058431;28;20037;-74
2022/01/15 09:33:23;;;;;;;8.85;6.13;;;;;;;;;;5044186;28;20053;-74
2022/01/15 09:35:50;;;;;;;6.32;5.55;;;;;;;;;;5063242;28;20067;-74
2022/01/15 09:38:17;;;;;;;6.70;5.90;;;;;;;;;;5050068;28;20048;-75
2022/01/15 09:40:45;;;;;;;5.45;4.50;;;;;;;;;;5062325;28;20044;-78
2022/01/15 09:43:15;;;;;;;6.47;3.83;;;;;;;;;;5066093;28;20056;-79
2022/01/15 09:45:44;;;;;;;4.82;3.33;;;;;;;;;;5048396;28;20471;-75
2022/01/15 09:48:15;;;;;;;4.78;4.05;;;;;;;;;;5049168;28;20053;-76
2022/01/15 09:50:44;;;;;;;4.40;4.00;;;;;;;;;;5043599;28;20050;-74
2022/01/15 09:53:14;;;;;;;7.20;4.75;;;;;;;;;;5039149;28;20049;-77
2022/01/15 09:55:41;;;;;;;4.43;3.90;;;;;;;;;;5049105;28;20146;-77
2022/01/15 09:58:08;;;;;;;6.53;4.65;;;;;;;;;;5058325;28;20056;-73
2022/01/15 10:00:36;;;;;;;6.70;4.05;;;;;;;;;;5046786;28;20485;-72
2022/01/15 10:03:03;;;;;;;4.65;4.25;;;;;;;;;;5037055;28;20115;-72
2022/01/15 10:05:30;;;;;;;5.20;3.92;;;;;;;;;;5043115;28;20037;-75
2022/01/15 10:08:00;;;;;;;7.80;4.20;;;;;;;;;;5056416;28;20045;-73
2022/01/15 10:10:31;;;;;;;4.93;3.85;;;;;;;;;;5038698;28;20413;-74
2022/01/15 10:13:38;;;;;;;6.47;4.95;;;;;;;;;;5049307;28;20044;-73
2022/01/15 10:16:07;;;;;;;5.63;4.65;;;;;;;;;;4952540;28;20054;-72
2022/01/15 10:18:43;;;;;;;6.07;5.00;;;;;;;;;;5046541;28;20040;-72
2022/01/15 10:21:23;;;;;;;5.20;4.15;;;;;;;;;;5051962;28;20420;-85
2022/01/15 10:23:58;;;;;;;8.18;5.10;;;;;;;;;;5064144;28;20512;-75
2022/01/15 10:26:28;;;;;;;5.28;4.78;;;;;;;;;;5041403;28;20048;-77
2022/01/15 10:28:57;;;;;;;4.80;4.25;;;;;;;;;;5050697;28;20136;-75
2022/01/15 10:31:43;;;;;;;6.00;5.35;;;;;;;;;;5028577;28;20072;-73
2022/01/15 10:34:32;;;;;;;7.70;4.85;;;;;;;;;;5050619;28;20071;-73
2022/01/15 10:37:08;;;;;;;9.30;4.78;;;;;;;;;;5046182;28;20063;-72
2022/01/15 10:39:36;;;;;;;6.15;4.35;;;;;;;;;;5057446;28;20509;-72
2022/01/15 10:42:19;;;;;;;6.50;5.18;;;;;;;;;;5039212;28;20056;-75
2022/01/15 10:44:47;;;;;;;7.05;4.93;;;;;;;;;;5025256;28;20140;-75
2022/01/15 10:47:17;;;;;;;11.93;5.15;;;;;;;;;;5053861;28;20045;-74
2022/01/15 10:49:45;;;;;;;5.22;4.68;;;;;;;;;;5046095;28;20132;-73
2022/01/15 10:52:21;;;;;;;11.30;5.03;;;;;;;;;;5057126;28;20052;-75
2022/01/15 10:55:07;;;;;;;5.15;4.45;;;;;;;;;;5048620;28;20063;-74
2022/01/15 10:57:38;;;;;;;4.43;4.03;;;;;;;;;;5056531;28;20048;-75
2022/01/15 11:00:06;;;;;;;6.45;5.03;;;;;;;;;;5075722;28;20055;-75
2022/01/15 11:02:34;;;;;;;6.95;4.82;;;;;;;;;;5057014;28;20056;-75
2022/01/15 11:05:02;;;;;;;5.18;4.30;;;;;;;;;;5056624;28;20048;-74
2022/01/15 11:07:36;;;;;;;14.30;5.47;;;;;;;;;;5042859;28;20072;-74
2022/01/15 11:10:07;;;;;;;5.45;4.93;;;;;;;;;;5037882;28;20090;-74
2022/01/15 11:12:34;;;;;;;6.68;4.80;;;;;;;;;;5050926;28;20041;-74
2022/01/15 11:15:01;;;;;;;5.80;4.43;;;;;;;;;;5046959;28;20048;-73
2022/01/15 11:17:30;;;;;;;7.32;5.93;;;;;;;;;;5055826;28;20045;-73
2022/01/15 11:19:57;;;;;;;9.05;5.53;;;;;;;;;;5052871;28;20131;-73
2022/01/15 11:22:25;;;;;;;10.90;6.63;;;;;;;;;;5043738;28;20567;-74
2022/01/15 11:24:52;;;;;;;8.65;6.65;;;;;;;;;;5049605;28;20121;-72
2022/01/15 11:27:19;;;;;;;11.88;7.03;;;;;;;;;;5047804;28;20049;-69
2022/01/15 11:29:47;;;;;;;12.55;8.95;;;;;;;;;;5057918;28;20045;-73
2022/01/15 11:32:17;;;;;;;11.32;8.68;;;;;;;;;;5057748;28;20131;-73
2022/01/15 11:35:02;;;;;;;15.07;8.40;;;;;;;;;;5049833;28;20144;-72
2022/01/15 11:37:39;;;;;;;10.07;7.97;;;;;;;;;;5033416;28;20571;-69
2022/01/15 11:40:46;;;;;;;11.40;8.88;;;;;;;;;;5036697;28;20044;-68
2022/01/15 11:43:26;;;;;;;9.35;7.93;;;;;;;;;;5037839;28;20550;-67
2022/01/15 11:45:57;;;;;;;13.25;8.45;;;;;;;;;;5068897;28;20094;-69
2022/01/15 11:48:28;;;;;;;9.85;8.82;;;;;;;;;;5052480;28;20097;-68
2022/01/15 11:51:13;;;;;;;9.18;7.07;;;;;;;;;;5067482;28;20054;-68
2022/01/15 11:53:45;;;;;;;16.27;7.78;;;;;;;;;;5070870;28;20390;-74
2022/01/15 11:56:21;;;;;;;9.77;8.32;;;;;;;;;;5069463;28;20109;-72
2022/01/15 11:58:49;;;;;;;14.20;8.43;;;;;;;;;;5063447;28;20041;-73
2022/01/15 12:01:35;;;;;;;10.82;8.55;;;;;;;;;;5067545;28;20041;-72
2022/01/15 12:04:39;;;;;;;11.55;8.27;;;;;;;;;;5064271;28;20044;-73
2022/01/15 12:07:06;;;;;;;11.23;7.65;;;;;;;;;;5068433;28;20542;-71
2022/01/15 12:09:43;;;;;;;9.02;7.28;;;;;;;;;;5066371;28;20060;-71
2022/01/15 12:15:05;;;;;;;12.45;7.55;;;;;;;;;;5067005;28;20098;-70
2022/01/15 12:17:40;;;;;;;9.52;7.88;;;;;;;;;;5086848;28;20052;-72
2022/01/15 12:20:31;;;;;;;9.80;8.70;;;;;;;;;;5065093;28;20048;-71
2022/01/15 12:23:18;;;;;;;11.60;7.95;;;;;;;;;;5065976;28;20049;-70
2022/01/15 12:25:46;;;;;;;11.80;8.05;;;;;;;;;;5073087;28;20064;-70
2022/01/15 12:28:15;;;;;;;9.68;8.38;;;;;;;;;;5056044;28;20124;-72
2022/01/15 12:30:50;;;;;;;14.32;7.55;;;;;;;;;;5056023;28;20122;-72
2022/01/15 12:33:22;;;;;;;13.73;8.07;;;;;;;;;;5057061;28;20503;-71
2022/01/15 12:35:58;;;;;;;15.00;9.18;;;;;;;;;;5056813;28;20079;-72
2022/01/15 12:38:28;;;;;;;12.48;8.32;;;;;;;;;;5054212;28;20059;-71
2022/01/15 12:41:01;;;;;;;14.40;9.20;;;;;;;;;;5051591;28;20090;-71
2022/01/15 12:43:29;;;;;;;19.20;8.35;;;;;;;;;;5054862;28;20040;-72
2022/01/15 12:46:08;;;;;;;14.93;8.10;;;;;;;;;;5037216;28;20056;-72
2022/01/15 12:48:36;;;;;;;11.70;8.75;;;;;;;;;;5045765;28;20099;-71
2022/01/15 12:51:09;;;;;;;10.50;8.73;;;;;;;;;;5052988;28;20049;-72
2022/01/15 12:53:57;;;;;;;11.52;8.73;;;;;;;;;;5049556;28;20091;-72
2022/01/15 12:56:27;;;;;;;10.68;8.40;;;;;;;;;;5054445;28;20059;-69
2022/01/15 12:58:55;;;;;;;11.95;8.07;;;;;;;;;;5066440;28;20098;-71
2022/01/15 13:01:27;;;;;;;11.63;7.95;;;;;;;;;;5047165;28;20066;-69
2022/01/15 13:03:55;;;;;;;10.35;8.98;;;;;;;;;;5069791;28;20452;-68
2022/01/15 13:06:25;;;;;;;11.98;8.75;;;;;;;;;;5069108;28;20187;-67
2022/01/15 13:08:55;;;;;;;13.40;10.38;;;;;;;;;;5031977;28;20036;-68
2022/01/15 13:11:24;;;;;;;13.48;8.38;;;;;;;;;;5069024;28;20110;-69
2022/01/15 13:13:56;;;;;;;11.90;8.23;;;;;;;;;;5053300;28;20466;-71
2022/01/15 13:16:30;;;;;;;12.52;8.52;;;;;;;;;;5052008;28;20135;-70
2022/01/15 13:19:02;;;;;;;14.95;9.25;;;;;;;;;;5049402;28;20053;-69
2022/01/15 13:21:31;;;;;;;11.90;8.88;;;;;;;;;;5048302;28;20451;-69
2022/01/15 13:24:12;;;;;;;13.38;9.70;;;;;;;;;;5050676;28;20079;-69
2022/01/15 13:26:46;;;;;;;16.30;8.88;;;;;;;;;;5039021;28;20051;-71
2022/01/15 13:29:24;;;;;;;11.45;10.25;;;;;;;;;;5054708;28;20508;-69
2022/01/15 13:31:52;;;;;;;13.48;9.02;;;;;;;;;;5052031;28;20056;-69
2022/01/15 13:34:29;;;;;;;14.43;8.75;;;;;;;;;;5033863;28;20036;-70
2022/01/15 13:37:12;;;;;;;12.48;9.02;;;;;;;;;;5066157;28;20060;-72
2022/01/15 13:39:41;;;;;;;13.30;11.13;;;;;;;;;;5034674;28;20170;-73
2022/01/15 13:42:23;;;;;;;13.45;9.70;;;;;;;;;;5034746;28;20135;-73
2022/01/15 13:44:50;;;;;;;19.80;9.52;;;;;;;;;;5021167;28;20045;-74
2022/01/15 13:47:18;;;;;;;14.30;9.93;;;;;;;;;;5054321;28;20489;-73
2022/01/15 13:55:26;;;;;;;11.48;9.43;;;;;;;;;;5053991;28;20049;-74
2022/01/15 13:58:05;;;;;;;;;;;;;;;;;;5018470;28;20064;-73
2022/01/15 14:00:32;;;;;;;11.55;9.30;;;;;;;;;;5034732;28;19921;-73
2022/01/15 14:03:04;;;;;;;14.13;11.32;;;;;;;;;;5033909;28;20060;-74
2022/01/15 14:05:31;;;;;;;20.45;11.10;;;;;;;;;;5034318;28;20045;-79
2022/01/15 14:08:08;;;;;;;15.50;10.10;;;;;;;;;;5051757;28;20057;-83
2022/01/15 14:10:39;;;;;;;15.98;11.45;;;;;;;;;;5034545;28;20053;-75
2022/01/15 14:13:08;;;;;;;19.83;11.45;;;;;;;;;;5022371;28;20033;-79
2022/01/15 14:15:43;;;;;;;16.98;13.70;;;;;;;;;;5068261;28;20048;-91
2022/01/15 14:18:13;;;;;;;18.38;13.02;;;;;;;;;;5063678;28;20072;-77
2022/01/15 14:21:15;;;;;;;18.35;13.27;;;;;;;;;;5056036;28;20052;-77
2022/01/15 14:23:40;;;;;;;19.35;14.27;;;;;;;;;;5055161;28;20568;-77
2022/01/15 14:26:18;;;;;;;15.00;11.23;;;;;;;;;;5063855;28;20056;-78
2022/01/15 14:28:46;;;;;;;13.55;10.60;;;;;;;;;;5050602;28;20052;-77
2022/01/15 14:31:13;;;;;;;16.95;11.25;;;;;;;;;;5034682;28;20049;-76
2022/01/15 14:33:48;;;;;;;16.00;12.43;;;;;;;;;;5050096;28;20052;-79
2022/01/15 14:36:16;;;;;;;16.05;12.30;;;;;;;;;;5050384;28;20059;-79
2022/01/15 14:38:43;;;;;;;15.98;11.57;;;;;;;;;;5050494;28;20097;-79
2022/01/15 14:41:10;;;;;;;15.10;12.85;;;;;;;;;;5068087;28;20051;-80
2022/01/15 14:43:37;;;;;;;18.33;12.65;;;;;;;;;;5049497;28;20175;-79
2022/01/15 14:46:05;;;;;;;19.55;11.43;;;;;;;;;;5034019;28;20188;-81
2022/01/15 14:48:35;;;;;;;15.00;11.82;;;;;;;;;;5035186;28;20040;-80
2022/01/15 14:51:03;;;;;;;12.68;10.25;;;;;;;;;;5069757;28;20048;-79
2022/01/15 14:53:30;;;;;;;13.43;10.40;;;;;;;;;;5049627;28;20048;-80
2022/01/15 14:56:00;;;;;;;17.08;11.82;;;;;;;;;;5048190;28;20051;-79
2022/01/15 14:58:27;;;;;;;15.05;10.00;;;;;;;;;;5059652;28;20782;-78
2022/01/15 15:00:55;;;;;;;16.42;12.13;;;;;;;;;;5049529;28;20057;-79
2022/01/15 15:03:23;;;;;;;15.02;10.93;;;;;;;;;;5048317;28;20473;-78
2022/01/15 15:05:50;;;;;;;19.63;12.57;;;;;;;;;;5047209;28;20056;-79
2022/01/15 15:08:18;;;;;;;13.52;11.70;;;;;;;;;;5047875;28;20058;-79
2022/01/15 15:10:54;;;;;;;17.38;11.88;;;;;;;;;;5014353;28;20531;-79
2022/01/15 15:13:24;;;;;;;13.73;11.95;;;;;;;;;;5033485;28;20563;-79
2022/01/15 15:15:51;;;;;;;13.23;11.07;;;;;;;;;;5043148;28;20130;-80
2022/01/15 15:18:18;;;;;;;15.23;11.85;;;;;;;;;;5064381;28;20044;-79
2022/01/15 15:20:49;;;;;;;14.98;11.93;;;;;;;;;;5092762;28;20060;-80
2022/01/15 15:23:17;;;;;;;15.20;12.43;;;;;;;;;;5057106;28;20504;-79